Guarulhos - Governador André Franco Montoro International Airport
SBGR : now visible

Airfield :











YOU CAN JOIN US ON...

 
LOGIN :

Register | Disclaimer

   EN    FR    IT 

 









Legend :    VFR   Marginal VFR   IFR   Intensive IFR   Very Intensive IFR
Visi :
Ceiling :
>= 8 km
>= 3000ft
5 to 8 km
1000 to 3000 ft
1500m to 5 km
500 to 1000 ft
800 to 1500m
200 to 500 ft
< 800m
< 200 ft
Symbols :   Thunderstorms  Fog  Heavy snow  Heavy precipitations  Wind > 20 kt







- Airport Elevation : 2459 ft
- IATA code : GRU


SBGR - Guarulhos - Governador André Franco Montoro International

CURRENT METAR :
  • 241500Z 29012KT CAVOK 24/13 Q1020

EXPIRED METARs :
  • 241400Z 30010KT CAVOK 23/13 Q1021
  • 241300Z 00000KT CAVOK 21/14 Q1022

TAF TAF SBGR
Valid from the 24 at 12:00 until the 25 at 18:00 UTC


240900Z 2412/2518 34010KT CAVOK TN14/2508Z TX27/2517Z
BECMG 2419/2421 35005KT
BECMG 2502/2504 06002KT
PROB30 2508/2510 5000 BR NSC
BECMG 2510/2512 34005KT
BECMG 2512/2514 34012KT
BECMG 2515/2517 9999 FEW040 RMK PGH
SBCW FIR / South America



MET'MAP, your aeronautical weather chart ! - Copyright ORBIFLY December 2007 - Disclaimer

ORBIFLY MET'MAP TEAM :

Programming & Development : Alexandra Zaïnal
Concept & Development : Baudouin d'Aumeries
Co-Development & Prog : Marc-Olivier Méhu
Technical & hardware support : Manuel Goepfert

Contact : metmap@orbifly.com




SOURCES & CREDITS :

   NOAA       Earth
Advisory